Time;durP1;ratioP1;P1;durP2;ratioP2;P2;SDS_P1;SDS_P2;PMS_P1;PMS_P2;Temp;Humidity;BMP_temperature;BMP_pressure;BME280_temperature;BME280_humidity;BME280_pressure;Samples;Min_cycle;Max_cycle;Signal;HPM_P1;HPM_P2
2021/01/16 00:01:01;;;;;;;;;;;;;;;6.24;39.74;102290.06;4675664;30;19939;-73
2021/01/16 00:03:28;;;;;;;;;;;;;;;6.26;39.58;102287.47;4676265;30;20088;-73
2021/01/16 00:05:56;;;;;;;;;;;;;;;6.28;39.82;102283.13;4680711;30;20016;-73
2021/01/16 00:08:23;;;;;;;;;;;;;;;6.25;39.87;102283.97;4668937;30;20002;-73
2021/01/16 00:10:51;;;;;;;;;;;;;;;6.30;39.80;102284.00;4672314;30;19936;-73
2021/01/16 00:13:18;;;;;;;;;;;;;;;6.32;39.81;102292.81;4674300;30;19999;-72
2021/01/16 00:15:47;;;;;;;;;;;;;;;6.35;39.75;102298.09;4673051;30;20030;-72
2021/01/16 00:18:14;;;;;;;;;;;;;;;6.36;39.64;102286.75;4675527;30;20038;-73
2021/01/16 00:20:42;;;;;;;;;;;;;;;6.41;39.46;102287.69;4674699;30;19938;-73
2021/01/16 00:23:08;;;;;;;;;;;;;;;6.45;39.59;102286.00;4670673;30;19970;-72
2021/01/16 00:25:36;;;;;;;;;;;;;;;6.44;39.31;102287.72;4673174;30;19940;-73
2021/01/16 00:28:03;;;;;;;;;;;;;;;6.46;39.56;102283.38;4679589;30;19935;-73
2021/01/16 00:30:31;;;;;;;;;;;;;;;6.51;39.33;102285.19;4676772;30;20034;-73
2021/01/16 00:32:59;;;;;;;;;;;;;;;6.55;39.14;102287.88;4678838;30;19939;-73
2021/01/16 00:35:27;;;;;;;;;;;;;;;6.60;39.29;102288.81;4670875;30;20379;-73
2021/01/16 00:37:54;;;;;;;;;;;;;;;6.61;39.08;102287.09;4672419;30;20031;-73
2021/01/16 00:40:22;;;;;;;;;;;;;;;6.62;39.13;102286.22;4678249;30;19938;-73
2021/01/16 00:42:50;;;;;;;;;;;;;;;6.68;38.96;102282.78;4673518;30;19935;-73
2021/01/16 00:45:18;;;;;;;;;;;;;;;6.74;38.89;102288.16;4673499;30;20087;-73
2021/01/16 00:47:45;;;;;;;;;;;;;;;6.77;38.62;102281.16;4672046;30;19945;-73
2021/01/16 00:50:15;;;;;;;;;;;;;;;6.80;38.75;102290.84;4651635;30;20034;-73
2021/01/16 00:52:42;;;;;;;;;;;;;;;6.82;38.45;102283.84;4658161;30;19935;-73
2021/01/16 00:55:09;;;;;;;;;;;;;;;6.80;38.89;102293.47;4659479;30;19949;-73
2021/01/16 00:57:37;;;;;;;;;;;;;;;6.79;38.70;102279.44;4663438;30;20426;-72
2021/01/16 01:00:08;;;;;;;;;;;;;;;6.80;38.76;102290.84;4661693;30;20425;-72
2021/01/16 01:02:43;;;;;;;;;;;;;;;6.77;38.64;102289.03;4672784;30;20248;-73
2021/01/16 01:05:11;;;;;;;;;;;;;;;6.76;38.61;102289.94;4665364;30;19966;-73
2021/01/16 01:07:38;;;;;;;;;;;;;;;6.73;38.96;102289.00;4673034;30;19967;-73
2021/01/16 01:10:07;;;;;;;;;;;;;;;6.71;38.80;102282.81;4673553;30;20488;-73
2021/01/16 01:12:33;;;;;;;;;;;;;;;6.68;38.77;102280.16;4677294;30;19936;-73
2021/01/16 01:15:00;;;;;;;;;;;;;;;6.69;38.83;102282.81;4672415;30;20373;-73
2021/01/16 01:17:27;;;;;;;;;;;;;;;6.67;38.64;102276.63;4672048;30;19994;-73
2021/01/16 01:19:54;;;;;;;;;;;;;;;6.63;39.00;102285.34;4668454;30;20307;-73
2021/01/16 01:22:20;;;;;;;;;;;;;;;6.56;39.13;102283.50;4670886;30;19936;-73
2021/01/16 01:24:48;;;;;;;;;;;;;;;6.55;38.94;102279.09;4675964;30;19936;-73
2021/01/16 01:27:15;;;;;;;;;;;;;;;6.51;38.84;102278.19;4674827;30;19943;-73
2021/01/16 01:29:41;;;;;;;;;;;;;;;6.48;38.86;102275.50;4673652;30;19936;-72
2021/01/16 01:32:08;;;;;;;;;;;;;;;6.44;39.13;102276.34;4666056;30;20078;-73
2021/01/16 01:34:35;;;;;;;;;;;;;;;6.41;38.98;102277.19;4669773;30;20002;-73
2021/01/16 01:37:02;;;;;;;;;;;;;;;6.35;39.09;102277.06;4671664;30;19935;-73
2021/01/16 01:39:29;;;;;;;;;;;;;;;6.35;38.81;102286.72;4659694;30;20310;-73
2021/01/16 01:41:56;;;;;;;;;;;;;;;6.30;38.99;102284.91;4677365;30;19938;-73
2021/01/16 01:44:23;;;;;;;;;;;;;;;6.26;39.04;102275.19;4672455;30;20026;-73
2021/01/16 01:46:50;;;;;;;;;;;;;;;6.28;38.94;102283.13;4665800;30;20358;-73
2021/01/16 01:49:17;;;;;;;;;;;;;;;6.26;39.22;102285.69;4670346;30;19940;-73
2021/01/16 01:51:44;;;;;;;;;;;;;;;6.27;38.92;102278.72;4675373;30;20001;-73
2021/01/16 01:54:11;;;;;;;;;;;;;;;6.28;39.00;102281.38;4671984;30;19931;-73
2021/01/16 01:56:38;;;;;;;;;;;;;;;6.26;38.81;102282.19;4671586;30;19961;-73
2021/01/16 01:59:06;;;;;;;;;;;;;;;6.27;38.88;102279.59;4665391;30;19936;-73
2021/01/16 02:01:38;;;;;;;;;;;;;;;6.31;39.00;102285.78;4667975;30;20461;-73
2021/01/16 02:04:07;;;;;;;;;;;;;;;6.33;38.83;102268.31;4670965;30;19990;-72
2021/01/16 02:06:34;;;;;;;;;;;;;;;6.34;38.61;102271.81;4673426;30;19996;-73
2021/01/16 02:09:01;;;;;;;;;;;;;;;6.37;38.48;102269.22;4673473;30;19938;-72
2021/01/16 02:11:28;;;;;;;;;;;;;;;6.40;38.45;102264.88;4674837;30;20006;-73
2021/01/16 02:13:54;;;;;;;;;;;;;;;6.42;38.48;102262.28;4665471;30;19943;-73
2021/01/16 02:16:25;;;;;;;;;;;;;;;6.43;38.35;102253.53;4668478;30;20022;-73
2021/01/16 02:18:55;;;;;;;;;;;;;;;6.46;38.13;102251.84;4673425;30;19932;-72
2021/01/16 02:21:23;;;;;;;;;;;;;;;6.49;38.20;102253.63;4672884;30;19990;-73
2021/01/16 02:23:51;;;;;;;;;;;;;;;6.50;38.65;102258.03;4670156;30;20010;-73
2021/01/16 02:26:33;;;;;;;;;;;;;;;6.54;38.21;102256.31;4671684;30;20022;-73
2021/01/16 02:29:01;;;;;;;;;;;;;;;6.57;38.14;102235.31;4666632;30;20027;-73
2021/01/16 02:31:32;;;;;;;;;;;;;;;6.61;38.03;102235.38;4672253;30;20403;-73
2021/01/16 02:34:01;;;;;;;;;;;;;;;6.63;38.00;102236.28;4671826;30;19932;-73
2021/01/16 02:36:35;;;;;;;;;;;;;;;6.69;38.09;102235.47;4672364;30;19955;-73
2021/01/16 02:39:06;;;;;;;;;;;;;;;6.71;38.12;102230.22;4673360;30;20527;-72
2021/01/16 02:41:36;;;;;;;;;;;;;;;6.77;37.51;102239.06;4670450;30;20010;-73
2021/01/16 02:44:12;;;;;;;;;;;;;;;6.77;37.84;102240.81;4671668;30;19936;-73
2021/01/16 02:46:43;;;;;;;;;;;;;;;6.81;37.92;102248.75;4674649;30;19931;-73
2021/01/16 02:49:13;;;;;;;;;;;;;;;6.82;37.96;102239.13;4671616;30;19963;-73
2021/01/16 02:51:41;;;;;;;;;;;;;;;6.84;37.73;102242.66;4674581;30;19936;-72
2021/01/16 02:54:10;;;;;;;;;;;;;;;6.85;37.80;102233.03;4656403;30;19939;-73
2021/01/16 02:56:37;;;;;;;;;;;;;;;6.80;37.84;102223.34;4665871;30;20169;-73
2021/01/16 02:59:04;;;;;;;;;;;;;;;6.78;38.00;102218.94;4671712;30;20337;-72
2021/01/16 03:01:35;;;;;;;;;;;;;;;6.78;37.83;102211.91;4673814;30;19932;-73
2021/01/16 03:04:03;;;;;;;;;;;;;;;6.77;37.79;102215.41;4672393;30;19994;-72
2021/01/16 03:06:30;;;;;;;;;;;;;;;6.73;37.63;102205.72;4677105;30;20001;-73
2021/01/16 03:08:58;;;;;;;;;;;;;;;6.73;37.96;102210.09;4672481;30;20425;-73
2021/01/16 03:11:26;;;;;;;;;;;;;;;6.69;38.01;102206.53;4662524;30;20406;-73
2021/01/16 03:13:55;;;;;;;;;;;;;;;6.67;37.92;102205.63;4676319;30;20358;-73
2021/01/16 03:16:27;;;;;;;;;;;;;;;6.65;37.95;102212.63;4675274;30;20027;-73
2021/01/16 03:18:56;;;;;;;;;;;;;;;6.58;38.14;102209.03;4679318;30;19962;-73
2021/01/16 03:21:23;;;;;;;;;;;;;;;6.55;38.01;102214.25;4675351;30;20260;-73
2021/01/16 03:23:50;;;;;;;;;;;;;;;6.54;38.00;102211.59;4669142;30;19939;-73
2021/01/16 03:26:17;;;;;;;;;;;;;;;6.50;38.18;102228.22;4670273;30;20576;-73
2021/01/16 03:28:43;;;;;;;;;;;;;;;6.47;38.11;102227.31;4671381;30;20337;-73
2021/01/16 03:31:10;;;;;;;;;;;;;;;6.43;38.28;102217.59;4676812;30;20001;-72
2021/01/16 03:33:37;;;;;;;;;;;;;;;6.42;38.17;102222.84;4676269;30;19938;-73
2021/01/16 03:36:07;;;;;;;;;;;;;;;6.37;38.16;102216.63;4673903;30;20046;-73
2021/01/16 03:38:33;;;;;;;;;;;;;;;6.33;37.77;102213.09;4668320;30;19936;-73
2021/01/16 03:41:01;;;;;;;;;;;;;;;6.29;38.08;102201.66;4678310;30;19998;-73
2021/01/16 03:43:27;;;;;;;;;;;;;;;6.25;38.22;102194.59;4678043;30;20021;-73
2021/01/16 03:45:54;;;;;;;;;;;;;;;6.26;38.30;102205.97;4674984;30;20347;-73
2021/01/16 03:48:21;;;;;;;;;;;;;;;6.26;38.20;102185.81;4674764;30;20042;-73
2021/01/16 03:50:48;;;;;;;;;;;;;;;6.25;38.30;102183.19;4671889;30;19939;-73
2021/01/16 03:53:16;;;;;;;;;;;;;;;6.26;38.15;102175.31;4669552;30;19950;-73
2021/01/16 03:55:42;;;;;;;;;;;;;;;6.25;38.13;102181.47;4671900;30;19936;-73
2021/01/16 03:58:09;;;;;;;;;;;;;;;6.28;38.10;102185.88;4673302;30;19971;-73
2021/01/16 04:00:36;;;;;;;;;;;;;;;6.31;38.16;102188.53;4674600;30;19943;-73
2021/01/16 04:03:03;;;;;;;;;;;;;;;6.31;37.98;102183.28;4675890;30;19939;-73
2021/01/16 04:05:30;;;;;;;;;;;;;;;6.37;37.96;102177.22;4670379;30;19932;-73
2021/01/16 04:07:56;;;;;;;;;;;;;;;6.37;37.82;102178.13;4673528;30;19958;-73
2021/01/16 04:10:24;;;;;;;;;;;;;;;6.43;37.79;102177.28;4674723;30;20691;-73
2021/01/16 04:12:51;;;;;;;;;;;;;;;6.43;37.86;102170.28;4679090;30;19936;-73
2021/01/16 04:15:17;;;;;;;;;;;;;;;6.50;37.52;102175.63;4680939;30;20314;-73
2021/01/16 04:17:44;;;;;;;;;;;;;;;6.50;37.51;102166.00;4677443;30;19935;-72
2021/01/16 04:20:11;;;;;;;;;;;;;;;6.52;37.61;102164.25;4670515;30;20359;-73
2021/01/16 04:22:38;;;;;;;;;;;;;;;6.55;37.63;102164.28;4675594;30;20480;-73
2021/01/16 04:25:06;;;;;;;;;;;;;;;6.60;37.81;102159.09;4675557;30;19939;-73
2021/01/16 04:27:33;;;;;;;;;;;;;;;6.65;37.43;102150.38;4674791;30;20049;-73
2021/01/16 04:30:01;;;;;;;;;;;;;;;6.71;37.44;102157.50;4674806;30;19931;-73
2021/01/16 04:32:29;;;;;;;;;;;;;;;6.74;37.27;102154.00;4671231;30;19938;-73
2021/01/16 04:34:56;;;;;;;;;;;;;;;6.76;37.46;102147.91;4666086;30;19931;-72
2021/01/16 04:37:23;;;;;;;;;;;;;;;6.85;37.31;102147.09;4675689;30;20397;-73
2021/01/16 04:39:49;;;;;;;;;;;;;;;6.88;37.41;102140.97;4677525;30;20003;-73
2021/01/16 04:42:17;;;;;;;;;;;;;;;6.89;37.14;102146.25;4674569;30;19961;-73
2021/01/16 04:44:45;;;;;;;;;;;;;;;6.98;37.23;102145.47;4673783;30;19994;-73
2021/01/16 04:47:18;;;;;;;;;;;;;;;7.03;37.22;102142.91;4674565;30;20029;-73
2021/01/16 04:49:45;;;;;;;;;;;;;;;7.07;36.94;102139.44;4671005;30;20038;-73
2021/01/16 04:52:12;;;;;;;;;;;;;;;7.11;37.21;102141.22;4677675;30;19932;-73
2021/01/16 04:54:40;;;;;;;;;;;;;;;7.14;37.29;102134.25;4676605;30;19967;-73
2021/01/16 04:57:07;;;;;;;;;;;;;;;7.15;37.01;102130.72;4677338;30;19990;-73
2021/01/16 04:59:34;;;;;;;;;;;;;;;7.16;37.34;102136.88;4657572;30;19956;-73
2021/01/16 05:02:06;;;;;;;;;;;;;;;7.18;37.29;102136.88;4669975;30;19936;-73
2021/01/16 05:04:34;;;;;;;;;;;;;;;7.15;37.39;102130.72;4674817;30;20041;-73
2021/01/16 05:07:05;;;;;;;;;;;;;;;7.13;37.36;102135.09;4679322;30;19946;-73
2021/01/16 05:09:34;;;;;;;;;;;;;;;7.15;37.26;102138.63;4676071;30;19946;-73
2021/01/16 05:12:19;;;;;;;;;;;;;;;7.13;37.36;102129.84;4676990;30;19938;-73
2021/01/16 05:14:57;;;;;;;;;;;;;;;7.14;37.42;102135.97;4672721;30;20018;-73
2021/01/16 05:17:26;;;;;;;;;;;;;;;7.13;37.15;102129.84;4672926;30;19944;-73
2021/01/16 05:19:54;;;;;;;;;;;;;;;7.13;37.41;102126.31;4679474;30;19932;-73
2021/01/16 05:22:22;;;;;;;;;;;;;;;7.12;37.30;102128.06;4662836;30;19932;-73
2021/01/16 05:24:48;;;;;;;;;;;;;;;7.09;37.66;102133.31;4673273;30;19935;-73
2021/01/16 05:27:19;;;;;;;;;;;;;;;7.04;37.82;102132.38;4678607;30;20026;-73
2021/01/16 05:29:46;;;;;;;;;;;;;;;7.01;37.81;102128.84;4671256;30;19942;-73
2021/01/16 05:32:14;;;;;;;;;;;;;;;7.00;37.77;102133.22;4674970;30;19977;-73
2021/01/16 05:34:42;;;;;;;;;;;;;;;6.98;37.61;102127.06;4674758;30;20462;-73
2021/01/16 05:37:08;;;;;;;;;;;;;;;6.97;37.57;102122.66;4677174;30;20314;-73
2021/01/16 05:39:35;;;;;;;;;;;;;;;6.94;37.91;102109.47;4677512;30;20018;-74
2021/01/16 05:42:03;;;;;;;;;;;;;;;6.92;37.73;102106.84;4675183;30;19931;-73
2021/01/16 05:44:30;;;;;;;;;;;;;;;6.90;38.06;102103.31;4656851;30;19932;-73
2021/01/16 05:46:58;;;;;;;;;;;;;;;6.90;38.12;102108.56;4673760;30;20457;-73
2021/01/16 05:49:26;;;;;;;;;;;;;;;6.89;38.29;102100.66;4662113;30;20368;-73
2021/01/16 05:51:53;;;;;;;;;;;;;;;6.89;38.47;102105.94;4677112;30;19938;-73
2021/01/16 05:54:26;;;;;;;;;;;;;;;6.90;38.37;102089.28;4673889;30;20039;-73
2021/01/16 05:56:53;;;;;;;;;;;;;;;6.92;38.26;102092.78;4667069;30;19935;-73
2021/01/16 05:59:20;;;;;;;;;;;;;;;6.95;38.45;102090.22;4672792;30;20792;-73
2021/01/16 06:01:48;;;;;;;;;;;;;;;6.97;38.19;102088.44;4676785;30;19940;-73
2021/01/16 06:04:15;;;;;;;;;;;;;;;6.97;37.91;102083.19;4676090;30;20387;-73
2021/01/16 06:06:42;;;;;;;;;;;;;;;7.01;38.09;102084.97;4678118;30;19939;-73
2021/01/16 06:09:14;;;;;;;;;;;;;;;7.03;38.29;102075.38;4675180;30;20375;-73
2021/01/16 06:11:44;;;;;;;;;;;;;;;7.07;37.93;102077.16;4673842;30;19955;-73
2021/01/16 06:14:12;;;;;;;;;;;;;;;7.09;38.24;102077.16;4672637;30;19942;-73
2021/01/16 06:16:46;;;;;;;;;;;;;;;7.11;38.20;102065.78;4676332;30;19938;-74
2021/01/16 06:19:18;;;;;;;;;;;;;;;7.13;38.13;102052.63;4675790;30;20408;-73
2021/01/16 06:21:45;;;;;;;;;;;;;;;7.18;38.02;102058.81;4675255;30;19935;-73
2021/01/16 06:24:15;;;;;;;;;;;;;;;7.20;38.12;102049.19;4679281;30;19993;-73
2021/01/16 06:26:42;;;;;;;;;;;;;;;7.20;38.17;102058.84;4662828;30;20048;-73
2021/01/16 06:29:25;;;;;;;;;;;;;;;7.25;37.83;102050.09;4672070;30;19973;-73
2021/01/16 06:31:52;;;;;;;;;;;;;;;7.30;37.73;102043.13;4676288;30;19940;-73
2021/01/16 06:34:29;;;;;;;;;;;;;;;7.29;37.74;102043.13;4676193;30;19939;-73
2021/01/16 06:37:04;;;;;;;;;;;;;;;7.35;37.56;102040.50;4659953;30;19967;-73
2021/01/16 06:39:33;;;;;;;;;;;;;;;7.39;37.83;102042.28;4673358;30;20035;-73
2021/01/16 06:42:05;;;;;;;;;;;;;;;7.42;37.82;102036.16;4674029;30;19931;-73
2021/01/16 06:44:31;;;;;;;;;;;;;;;7.43;37.86;102030.03;4677665;30;20279;-73
2021/01/16 06:46:59;;;;;;;;;;;;;;;7.41;38.04;102027.38;4675775;30;19939;-73
2021/01/16 06:49:26;;;;;;;;;;;;;;;7.43;37.70;102030.91;4676727;30;19935;-73
2021/01/16 06:51:54;;;;;;;;;;;;;;;7.41;37.98;102021.25;4676776;30;19935;-73
2021/01/16 06:54:21;;;;;;;;;;;;;;;7.41;37.55;102008.09;4673954;30;19932;-73
2021/01/16 06:56:59;;;;;;;;;;;;;;;7.38;38.09;102018.56;4657660;30;20339;-73
2021/01/16 06:59:27;;;;;;;;;;;;;;;7.38;37.71;102011.56;4670758;30;19968;-73
2021/01/16 07:01:54;;;;;;;;;;;;;;;7.32;38.09;102015.03;4676141;30;19932;-73
2021/01/16 07:04:23;;;;;;;;;;;;;;;7.28;38.00;102010.63;4680774;30;20378;-73
2021/01/16 07:06:50;;;;;;;;;;;;;;;7.31;37.52;102015.03;4674912;30;19935;-74
2021/01/16 07:09:18;;;;;;;;;;;;;;;7.25;38.09;102021.13;4670664;30;19963;-73
2021/01/16 07:11:46;;;;;;;;;;;;;;;7.24;37.84;102022.00;4675990;30;19998;-72
2021/01/16 07:14:14;;;;;;;;;;;;;;;7.20;37.76;102024.63;4678698;30;19932;-73
2021/01/16 07:16:41;;;;;;;;;;;;;;;7.19;37.90;102020.22;4661346;30;19932;-73
2021/01/16 07:19:09;;;;;;;;;;;;;;;7.16;37.82;102015.81;4677359;30;20420;-74
2021/01/16 07:21:39;;;;;;;;;;;;;;;7.11;37.93;102015.78;4670149;30;20737;-72
2021/01/16 07:24:07;;;;;;;;;;;;;;;7.07;38.05;102010.50;4667631;30;20039;-73
2021/01/16 07:26:36;;;;;;;;;;;;;;;7.04;38.31;102013.06;4677955;30;19982;-73
2021/01/16 07:29:07;;;;;;;;;;;;;;;7.03;38.00;102014.84;4677648;30;19935;-73
2021/01/16 07:31:36;;;;;;;;;;;;;;;6.99;38.00;102015.69;4676559;30;20278;-73
2021/01/16 07:34:04;;;;;;;;;;;;;;;6.97;37.94;102014.78;4674610;30;19997;-73
2021/01/16 07:36:31;;;;;;;;;;;;;;;6.96;37.65;102015.66;4673579;30;20398;-73
2021/01/16 07:39:01;;;;;;;;;;;;;;;6.89;37.72;102011.22;4673464;30;19939;-73
2021/01/16 07:41:30;;;;;;;;;;;;;;;6.91;38.01;102017.38;4674271;30;19939;-73
2021/01/16 07:44:07;;;;;;;;;;;;;;;6.87;38.22;102027.00;4670921;30;20448;-73
2021/01/16 07:46:34;;;;;;;;;;;;;;;6.87;38.17;102020.84;4676162;30;20485;-73
2021/01/16 07:49:05;;;;;;;;;;;;;;;6.89;38.06;102022.59;4673002;30;19971;-73
2021/01/16 07:51:32;;;;;;;;;;;;;;;6.89;38.19;102016.47;4665512;30;19939;-73
2021/01/16 08:01:21;;;;;;;;;;;;;;;6.92;37.66;102019.13;5326442;24;19938;-73
2021/01/16 08:03:59;;;;;;;;;;;;;;;7.00;37.55;102014.81;4693760;30;19941;-74
2021/01/16 08:06:39;;;;;;;;;;;;;;;7.05;37.56;102007.84;4691742;30;20441;-74
2021/01/16 08:09:08;;;;;;;;;;;;;;;7.14;37.39;102002.66;4695373;30;19935;-75
2021/01/16 08:11:36;;;;;;;;;;;;;;;7.27;37.47;102003.59;4688736;30;19934;-74
2021/01/16 08:14:06;;;;;;;;;;;;;;;7.36;37.33;102001.91;4697618;30;19935;-74
2021/01/16 08:16:34;;;;;;;;;;;;;;;7.43;36.92;102001.97;4692108;30;19946;-74
2021/01/16 08:19:13;;;;;;;;;;;;;;;7.49;37.04;101995.84;4691434;30;19932;-75
2021/01/16 08:21:52;;;;;;;;;;;;;;;7.61;36.64;101995.03;4690951;30;20364;-73
2021/01/16 08:24:21;;;;;;;;;;;;;;;7.71;36.77;102002.09;4697750;30;19935;-75
2021/01/16 08:26:55;;;;;;;;;;;;;;;7.85;36.36;101988.97;4701564;30;19942;-74
2021/01/16 08:29:22;;;;;;;;;;;;;;;7.91;36.42;101989.00;4693136;30;19931;-74
2021/01/16 08:31:49;;;;;;;;;;;;;;;7.97;36.20;101996.94;4695579;30;19941;-74
2021/01/16 08:34:31;;;;;;;;;;;;;;;8.02;36.57;101998.69;4693157;30;20839;-74
2021/01/16 09:02:37;;;;;;;;;;;;;;;10.04;34.35;101964.16;5452783;24;19939;-73
2021/01/16 09:05:21;;;;;;;;;;;;;;;10.24;33.80;101964.06;4690686;30;20019;-73
2021/01/16 09:07:49;;;;;;;;;;;;;;;10.39;33.84;101957.81;4691596;30;20240;-73
2021/01/16 09:10:21;;;;;;;;;;;;;;;10.53;33.60;101959.47;4689817;30;19935;-74
2021/01/16 09:12:48;;;;;;;;;;;;;;;10.75;33.53;101955.72;4698168;30;19935;-73
2021/01/16 09:15:19;;;;;;;;;;;;;;;10.83;33.35;101962.75;4694740;30;19970;-74
2021/01/16 09:18:05;;;;;;;;;;;;;;;10.96;33.32;101967.91;4683205;30;20386;-73
2021/01/16 09:20:32;;;;;;;;;;;;;;;11.17;33.25;101959.75;4694801;30;20047;-74
2021/01/16 09:23:14;;;;;;;;;;;;;;;11.35;33.12;101964.00;4695988;30;20051;-73
2021/01/16 09:25:41;;;;;;;;;;;;;;;11.58;32.75;101955.75;4686052;30;20042;-73
2021/01/16 09:28:08;;;;;;;;;;;;;;;11.71;32.60;101949.41;4693956;30;19989;-75
2021/01/16 09:30:35;;;;;;;;;;;;;;;12.02;32.22;101943.72;4692635;30;19935;-74
2021/01/16 09:33:19;;;;;;;;;;;;;;;14.17;28.86;101918.44;4695619;30;20659;-73
2021/01/16 09:35:45;;;;;;;;;;;;;;;15.23;26.96;101911.28;4693490;30;19935;-74
2021/01/16 09:38:15;;;;;;;;;;;;;;;15.59;26.37;101921.81;4705298;30;19985;-74
2021/01/16 09:40:42;;;;;;;;;;;;;;;15.85;26.04;101904.16;4698596;30;19935;-74
2021/01/16 09:43:16;;;;;;;;;;;;;;;16.37;25.49;101909.63;4693319;30;20409;-75
2021/01/16 09:45:49;;;;;;;;;;;;;;;16.59;24.95;101899.09;4681613;30;20038;-72
2021/01/16 09:48:31;;;;;;;;;;;;;;;16.63;24.95;101897.19;4677657;30;19940;-75
2021/01/16 09:51:00;;;;;;;;;;;;;;;15.98;26.09;101900.19;4688347;30;20420;-74
2021/01/16 09:53:28;;;;;;;;;;;;;;;14.87;27.80;101898.94;4692236;30;19939;-74
2021/01/16 09:55:55;;;;;;;;;;;;;;;14.71;28.28;101887.84;4694552;30;19935;-74
2021/01/16 09:58:29;;;;;;;;;;;;;;;14.25;29.07;101904.97;4689950;30;20048;-74
2021/01/16 10:01:17;;;;;;;;;;;;;;;13.93;29.90;101906.56;4686515;30;19981;-75
2021/01/16 10:03:44;;;;;;;;;;;;;;;13.84;29.60;101899.69;4691625;30;19946;-74
2021/01/16 10:06:13;;;;;;;;;;;;;;;14.16;29.11;101889.22;4693405;30;19932;-76
2021/01/16 10:08:41;;;;;;;;;;;;;;;14.07;29.65;101885.84;4691552;30;20339;-75
2021/01/16 10:11:07;;;;;;;;;;;;;;;13.68;30.10;101885.00;4692021;30;20432;-75
2021/01/16 10:13:35;;;;;;;;;;;;;;;13.39;30.66;101883.84;4687035;30;20162;-74
2021/01/16 10:16:04;;;;;;;;;;;;;;;13.58;30.49;101881.66;4685742;30;19969;-75
2021/01/16 10:18:32;;;;;;;;;;;;;;;13.76;30.23;101869.72;4694405;30;19954;-74
2021/01/16 10:21:00;;;;;;;;;;;;;;;13.67;30.61;101878.81;4689689;30;20068;-75
2021/01/16 10:23:29;;;;;;;;;;;;;;;13.75;30.55;101875.97;4686908;30;20305;-75
2021/01/16 10:25:59;;;;;;;;;;;;;;;13.74;30.52;101879.53;4678798;30;19990;-75
2021/01/16 10:28:28;;;;;;;;;;;;;;;13.42;31.44;101878.44;4683146;30;19995;-75
2021/01/16 10:30:59;;;;;;;;;;;;;;;13.24;31.50;101879.69;4693605;30;19942;-75
2021/01/16 10:33:28;;;;;;;;;;;;;;;12.94;32.24;101885.56;4688636;30;19946;-75
2021/01/16 10:36:04;;;;;;;;;;;;;;;12.64;32.70;101881.69;4673781;30;19978;-75
2021/01/16 10:38:49;;;;;;;;;;;;;;;13.24;31.60;101869.06;4691212;30;19938;-76
2021/01/16 10:41:17;;;;;;;;;;;;;;;14.40;29.65;101853.97;4683675;30;19931;-75
2021/01/16 10:43:44;;;;;;;;;;;;;;;15.37;27.73;101852.25;4687637;30;20706;-75
2021/01/16 10:46:21;;;;;;;;;;;;;;;15.42;27.83;101853.84;4690570;30;19938;-75
2021/01/16 10:48:49;;;;;;;;;;;;;;;14.06;30.05;101860.13;4690735;30;19943;-75
2021/01/16 10:51:22;;;;;;;;;;;;;;;12.66;32.10;101855.13;4685838;30;19995;-75
2021/01/16 10:53:56;;;;;;;;;;;;;;;13.42;30.90;101851.88;4686640;30;20735;-75
2021/01/16 10:56:26;;;;;;;;;;;;;;;12.72;32.39;101855.88;4682467;30;19931;-75
2021/01/16 10:59:07;;;;;;;;;;;;;;;12.85;32.13;101845.03;4690230;30;19938;-74
2021/01/16 11:01:43;;;;;;;;;;;;;;;12.83;31.68;101854.81;4691432;30;20309;-75
2021/01/16 11:04:16;;;;;;;;;;;;;;;12.19;33.11;101849.75;4687151;30;19931;-75
2021/01/16 11:06:47;;;;;;;;;;;;;;;12.18;33.23;101843.56;4688506;30;19939;-75
2021/01/16 11:09:32;;;;;;;;;;;;;;;12.45;32.93;101847.53;4694496;30;19932;-75
2021/01/16 11:11:59;;;;;;;;;;;;;;;12.73;32.72;101839.06;4686943;30;19974;-76
2021/01/16 11:14:32;;;;;;;;;;;;;;;13.03;31.63;101841.16;4690855;30;19990;-74
2021/01/16 11:17:02;;;;;;;;;;;;;;;13.22;31.43;101831.88;4687315;30;19935;-74
2021/01/16 11:19:31;;;;;;;;;;;;;;;13.28;31.10;101820.25;4692073;30;19946;-75
2021/01/16 11:22:04;;;;;;;;;;;;;;;12.91;32.00;101816.59;4686354;30;20299;-75
2021/01/16 11:24:52;;;;;;;;;;;;;;;13.40;31.05;101833.28;4681290;30;20038;-75
2021/01/16 11:27:20;;;;;;;;;;;;;;;13.55;31.02;101826.78;4686600;30;19935;-75
2021/01/16 11:29:47;;;;;;;;;;;;;;;13.03;32.08;101830.53;4699732;30;20009;-75
2021/01/16 11:32:15;;;;;;;;;;;;;;;12.36;33.54;101834.41;4697927;30;19931;-75
2021/01/16 11:34:57;;;;;;;;;;;;;;;12.21;33.66;101837.34;4702515;30;19935;-75
2021/01/16 11:37:38;;;;;;;;;;;;;;;12.22;33.73;101837.31;4685580;30;19965;-75
2021/01/16 11:40:20;;;;;;;;;;;;;;;11.71;34.87;101842.50;4697298;30;20390;-75
2021/01/16 11:43:00;;;;;;;;;;;;;;;12.09;34.11;101843.72;4702130;30;19939;-75
2021/01/16 11:45:27;;;;;;;;;;;;;;;12.19;33.96;101839.16;4685773;30;19935;-75
2021/01/16 11:47:54;;;;;;;;;;;;;;;13.20;32.45;101836.34;4704590;30;19930;-75
2021/01/16 11:50:23;;;;;;;;;;;;;;;14.33;29.79;101838.19;4700492;30;20188;-75
2021/01/16 11:52:49;;;;;;;;;;;;;;;14.19;30.27;101831.44;4693712;30;20011;-75
2021/01/16 11:55:17;;;;;;;;;;;;;;;13.20;32.04;101832.84;4700228;30;19965;-75
2021/01/16 11:57:45;;;;;;;;;;;;;;;12.98;32.71;101837.72;4710675;30;19930;-75
2021/01/16 12:00:14;;;;;;;;;;;;;;;13.00;33.07;101836.78;4709338;30;19931;-75
2021/01/16 12:02:43;;;;;;;;;;;;;;;12.54;33.91;101835.00;4683315;30;19931;-75
2021/01/16 12:05:13;;;;;;;;;;;;;;;12.94;33.34;101828.94;4690328;30;19942;-77
2021/01/16 12:07:47;;;;;;;;;;;;;;;13.22;32.87;101831.00;4694106;30;20017;-76
2021/01/16 12:10:16;;;;;;;;;;;;;;;13.29;32.77;101824.66;4696917;30;19932;-76
2021/01/16 12:12:43;;;;;;;;;;;;;;;13.57;32.35;101821.44;4696341;30;19931;-76
2021/01/16 12:15:17;;;;;;;;;;;;;;;13.84;31.94;101819.91;4703500;30;19939;-76
2021/01/16 12:17:45;;;;;;;;;;;;;;;14.27;31.05;101809.97;4698816;30;20411;-76
2021/01/16 12:20:12;;;;;;;;;;;;;;;14.11;31.68;101801.50;4687933;30;19939;-76
2021/01/16 12:22:41;;;;;;;;;;;;;;;14.02;31.95;101799.94;4692062;30;19935;-76
2021/01/16 12:25:09;;;;;;;;;;;;;;;14.20;31.79;101793.28;4694929;30;19931;-76
2021/01/16 12:27:43;;;;;;;;;;;;;;;14.45;31.80;101796.16;4691762;30;20030;-77
2021/01/16 12:30:10;;;;;;;;;;;;;;;14.88;31.43;101795.91;4688713;30;19958;-76
2021/01/16 12:32:39;;;;;;;;;;;;;;;15.29;30.76;101793.84;4689530;30;20384;-76
2021/01/16 12:35:06;;;;;;;;;;;;;;;16.27;29.08;101781.78;4685569;30;20050;-77
2021/01/16 12:37:33;;;;;;;;;;;;;;;15.46;30.86;101782.66;4696297;30;19939;-77
2021/01/16 12:40:01;;;;;;;;;;;;;;;14.60;32.38;101778.03;4696165;30;19935;-76
2021/01/16 12:42:30;;;;;;;;;;;;;;;13.80;33.88;101782.78;4690355;30;20006;-76
2021/01/16 12:45:03;;;;;;;;;;;;;;;13.50;34.37;101779.94;4694748;30;19931;-76
2021/01/16 12:47:30;;;;;;;;;;;;;;;13.31;34.89;101777.66;4689550;30;19942;-77
2021/01/16 12:49:59;;;;;;;;;;;;;;;13.05;35.11;101772.91;4684626;30;19935;-78
2021/01/16 12:52:26;;;;;;;;;;;;;;;12.87;35.46;101777.72;4692545;30;19971;-77
2021/01/16 12:55:00;;;;;;;;;;;;;;;12.80;35.84;101768.13;4691345;30;20453;-76
2021/01/16 12:57:29;;;;;;;;;;;;;;;12.68;35.83;101769.25;4691836;30;20005;-77
2021/01/16 12:59:57;;;;;;;;;;;;;;;12.57;36.14;101760.63;4692554;30;19938;-77
2021/01/16 13:02:24;;;;;;;;;;;;;;;12.51;36.22;101768.69;4684375;30;19935;-76
2021/01/16 13:04:55;;;;;;;;;;;;;;;12.66;35.64;101763.09;4690075;30;19931;-76
2021/01/16 13:07:23;;;;;;;;;;;;;;;13.76;33.79;101750.94;4678644;30;20027;-76
2021/01/16 13:09:50;;;;;;;;;;;;;;;14.45;32.48;101753.56;4690118;30;20255;-77
2021/01/16 13:12:19;;;;;;;;;;;;;;;13.83;33.82;101745.47;4702464;30;19957;-77
2021/01/16 13:14:52;;;;;;;;;;;;;;;14.28;33.22;101731.88;4692692;30;19931;-77
2021/01/16 13:17:22;;;;;;;;;;;;;;;14.80;32.15;101736.66;4692379;30;19930;-76
2021/01/16 13:19:50;;;;;;;;;;;;;;;15.22;31.41;101737.19;4693739;30;19935;-75
2021/01/16 13:22:17;;;;;;;;;;;;;;;15.29;31.11;101737.84;4679760;30;20310;-77
2021/01/16 13:24:57;;;;;;;;;;;;;;;14.87;32.25;101732.91;4685501;30;19931;-77
2021/01/16 13:27:25;;;;;;;;;;;;;;;14.54;32.65;101730.28;4689033;30;19942;-77